Time;durP1;ratioP1;P1;durP2;ratioP2;P2;SDS_P1;SDS_P2;PMS_P1;PMS_P2;Temp;Humidity;BMP_temperature;BMP_pressure;BME280_temperature;BME280_humidity;BME280_pressure;Samples;Min_cycle;Max_cycle;Signal;HPM_P1;HPM_P2
2023/04/27 00:02:00;;;;;;;6.50;2.40;;;8.00;99.90;;;;;;5019176;28;20212;-75
2023/04/27 00:04:26;;;;;;;4.20;2.30;;;8.00;99.90;;;;;;5020612;28;20216;-76
2023/04/27 00:06:52;;;;;;;6.80;2.40;;;8.10;99.90;;;;;;5012566;28;20256;-76
2023/04/27 00:09:18;;;;;;;4.03;2.10;;;8.10;99.90;;;;;;5020234;28;20199;-75
2023/04/27 00:11:43;;;;;;;4.70;2.27;;;8.10;99.90;;;;;;5014118;28;20263;-77
2023/04/27 00:14:09;;;;;;;3.03;1.77;;;8.10;99.90;;;;;;5019368;28;20794;-76
2023/04/27 00:16:34;;;;;;;5.93;2.60;;;8.10;99.90;;;;;;5014081;28;20282;-76
2023/04/27 00:19:00;;;;;;;6.20;2.33;;;8.00;99.90;;;;;;5009532;28;20205;-75
2023/04/27 00:21:26;;;;;;;4.53;2.37;;;8.00;99.90;;;;;;5016668;28;20223;-76
2023/04/27 00:23:52;;;;;;;7.43;2.10;;;8.00;99.90;;;;;;5011517;28;20211;-76
2023/04/27 00:26:19;;;;;;;5.43;2.50;;;8.00;99.90;;;;;;5020577;28;20339;-76
2023/04/27 00:28:45;;;;;;;7.53;2.10;;;8.00;99.90;;;;;;5012625;28;20209;-76
2023/04/27 00:31:11;;;;;;;6.47;2.10;;;8.10;99.90;;;;;;5019940;28;20782;-75
2023/04/27 00:33:37;;;;;;;3.33;1.67;;;8.00;99.90;;;;;;5012884;28;20252;-76
2023/04/27 00:36:02;;;;;;;4.10;1.97;;;8.00;99.90;;;;;;5021250;28;20293;-76
2023/04/27 00:38:29;;;;;;;5.37;1.90;;;8.10;99.90;;;;;;5013726;28;20292;-75
2023/04/27 00:41:06;;;;;;;5.07;2.00;;;8.00;99.90;;;;;;5027133;28;20758;-76
2023/04/27 00:43:32;;;;;;;5.17;2.60;;;8.00;99.90;;;;;;5020797;28;20235;-76
2023/04/27 00:45:58;;;;;;;6.43;2.17;;;8.00;99.90;;;;;;5020464;28;20616;-76
2023/04/27 00:48:25;;;;;;;5.70;2.00;;;8.00;99.90;;;;;;5020605;28;20264;-77
2023/04/27 00:50:51;;;;;;;4.07;2.20;;;8.00;99.90;;;;;;5027049;28;20219;-77
2023/04/27 00:53:18;;;;;;;6.00;2.10;;;8.00;99.90;;;;;;5019194;28;20717;-76
2023/04/27 00:55:43;;;;;;;3.80;2.20;;;7.90;99.90;;;;;;5016304;28;20235;-76
2023/04/27 00:58:09;;;;;;;7.47;2.60;;;8.00;99.90;;;;;;5012671;28;20245;-75
2023/04/27 01:00:35;;;;;;;9.40;2.93;;;7.90;99.90;;;;;;5018476;28;20204;-76
2023/04/27 01:03:03;;;;;;;5.53;1.90;;;7.90;99.90;;;;;;5015271;28;20303;-77
2023/04/27 01:05:29;;;;;;;7.80;2.23;;;8.00;99.90;;;;;;5019192;28;20236;-75
2023/04/27 01:07:55;;;;;;;8.57;2.27;;;8.00;99.90;;;;;;5015321;28;20205;-77
2023/04/27 01:10:21;;;;;;;4.00;2.57;;;8.00;99.90;;;;;;5019393;28;20920;-76
2023/04/27 01:12:46;;;;;;;7.30;2.37;;;7.90;99.90;;;;;;5026823;28;20176;-76
2023/04/27 01:15:13;;;;;;;6.40;2.43;;;8.00;99.90;;;;;;5015285;28;20263;-74
2023/04/27 01:17:39;;;;;;;4.77;2.30;;;7.90;99.90;;;;;;5013775;28;20217;-76
2023/04/27 01:20:09;;;;;;;3.40;2.30;;;8.00;99.90;;;;;;5024028;28;20268;-76
2023/04/27 01:22:35;;;;;;;5.50;2.10;;;8.00;99.90;;;;;;5017147;28;20319;-76
2023/04/27 01:25:01;;;;;;;7.97;2.30;;;7.80;99.90;;;;;;5020043;28;20180;-74
2023/04/27 01:27:27;;;;;;;4.37;2.47;;;7.90;99.90;;;;;;5020200;28;20173;-73
2023/04/27 01:29:52;;;;;;;8.17;2.43;;;7.80;99.90;;;;;;5019220;28;20779;-76
2023/04/27 01:32:18;;;;;;;10.03;2.80;;;7.80;99.90;;;;;;5014987;28;20213;-74
2023/04/27 01:34:43;;;;;;;6.57;2.50;;;7.80;99.90;;;;;;5014147;28;20209;-76
2023/04/27 01:37:09;;;;;;;9.50;2.87;;;7.90;99.90;;;;;;5023336;28;21124;-76
2023/04/27 01:39:35;;;;;;;4.37;2.30;;;7.80;99.90;;;;;;5015173;28;20275;-75
2023/04/27 01:42:02;;;;;;;6.97;2.23;;;7.80;99.90;;;;;;5016560;28;20772;-74
2023/04/27 01:44:28;;;;;;;5.23;2.10;;;7.70;99.90;;;;;;5018417;28;20701;-74
2023/04/27 01:46:54;;;;;;;13.90;2.63;;;7.70;99.90;;;;;;5014178;28;20209;-76
2023/04/27 01:49:19;;;;;;;5.20;2.07;;;7.70;99.90;;;;;;5013410;28;20743;-76
2023/04/27 01:51:45;;;;;;;5.87;2.23;;;7.70;99.90;;;;;;5024920;28;20185;-75
2023/04/27 01:54:11;;;;;;;5.17;2.30;;;7.70;99.90;;;;;;5028766;28;20559;-74
2023/04/27 01:56:36;;;;;;;7.30;2.57;;;7.70;99.90;;;;;;5023690;28;20209;-76
2023/04/27 01:59:02;;;;;;;7.07;2.30;;;7.80;99.90;;;;;;5014046;28;20244;-74
2023/04/27 02:01:28;;;;;;;8.63;2.47;;;7.70;99.90;;;;;;5012017;28;20216;-73
2023/04/27 02:03:53;;;;;;;4.97;2.03;;;7.70;99.90;;;;;;5016384;28;20280;-76
2023/04/27 02:06:19;;;;;;;5.87;2.00;;;7.60;99.90;;;;;;5021822;28;20234;-76
2023/04/27 02:08:44;;;;;;;7.53;2.70;;;7.60;99.90;;;;;;5016099;28;20242;-76
2023/04/27 02:11:10;;;;;;;10.80;2.43;;;7.60;99.90;;;;;;5015942;28;20236;-75
2023/04/27 02:13:36;;;;;;;4.73;2.10;;;7.70;99.90;;;;;;5016817;28;20287;-76
2023/04/27 02:16:03;;;;;;;6.80;1.80;;;7.60;99.90;;;;;;5018670;28;20263;-76
2023/04/27 02:18:31;;;;;;;4.10;2.00;;;7.60;99.90;;;;;;5018965;28;20255;-75
2023/04/27 02:20:57;;;;;;;3.77;2.17;;;7.60;99.90;;;;;;5014216;28;20213;-76
2023/04/27 02:23:22;;;;;;;7.30;2.47;;;7.60;99.90;;;;;;5021833;28;20234;-75
2023/04/27 02:25:48;;;;;;;5.00;2.30;;;7.60;99.90;;;;;;5021056;28;20211;-75
2023/04/27 02:28:14;;;;;;;5.17;2.10;;;7.70;99.90;;;;;;5021382;28;20699;-74
2023/04/27 02:30:40;;;;;;;9.20;3.17;;;7.60;99.90;;;;;;5013245;28;20656;-76
2023/04/27 02:33:05;;;;;;;9.13;2.43;;;7.60;99.90;;;;;;5021871;28;20243;-74
2023/04/27 02:35:32;;;;;;;7.57;2.00;;;7.60;99.90;;;;;;5018352;28;20201;-75
2023/04/27 02:37:58;;;;;;;5.70;2.30;;;7.60;99.90;;;;;;5026167;28;20585;-75
2023/04/27 02:40:27;;;;;;;7.03;2.00;;;7.60;99.90;;;;;;5012122;28;20231;-75
2023/04/27 02:42:52;;;;;;;3.63;2.13;;;7.60;99.90;;;;;;5010877;28;20636;-75
2023/04/27 02:45:18;;;;;;;8.00;2.47;;;7.50;99.90;;;;;;5017011;28;20206;-75
2023/04/27 02:47:44;;;;;;;6.97;2.50;;;7.50;99.90;;;;;;5015139;28;20693;-75
2023/04/27 02:50:10;;;;;;;9.80;2.57;;;7.60;99.90;;;;;;5010119;28;20723;-75
2023/04/27 02:52:35;;;;;;;9.60;2.33;;;7.60;99.90;;;;;;5010828;28;20250;-75
2023/04/27 02:55:01;;;;;;;8.07;2.57;;;7.50;99.90;;;;;;5021064;28;20189;-76
2023/04/27 02:57:27;;;;;;;7.67;2.20;;;7.50;99.90;;;;;;5013504;28;20187;-74
2023/04/27 02:59:52;;;;;;;5.37;1.90;;;7.40;99.90;;;;;;5012638;28;20220;-76
2023/04/27 03:02:18;;;;;;;5.80;2.20;;;7.50;99.90;;;;;;5020451;28;20212;-75
2023/04/27 03:04:44;;;;;;;7.50;2.73;;;7.40;99.90;;;;;;5011403;28;20593;-76
2023/04/27 03:07:11;;;;;;;6.40;2.40;;;7.40;99.90;;;;;;5012289;28;20219;-76
2023/04/27 03:09:37;;;;;;;6.33;1.70;;;7.40;99.90;;;;;;5017718;28;20201;-76
2023/04/27 03:12:03;;;;;;;6.57;1.90;;;7.40;99.90;;;;;;5016379;28;20238;-76
2023/04/27 03:14:29;;;;;;;3.33;1.93;;;7.40;99.90;;;;;;5014831;28;20668;-76
2023/04/27 03:16:56;;;;;;;4.03;2.17;;;7.40;99.90;;;;;;5009657;28;20212;-76
2023/04/27 03:19:22;;;;;;;9.73;2.53;;;7.40;99.90;;;;;;5020649;28;20224;-76
2023/04/27 03:21:47;;;;;;;4.40;2.30;;;7.50;99.90;;;;;;5014576;28;20179;-76
2023/04/27 03:24:13;;;;;;;6.40;2.23;;;7.50;99.90;;;;;;5015398;28;20189;-77
2023/04/27 03:26:38;;;;;;;6.77;2.37;;;7.40;99.90;;;;;;5017641;28;20252;-76
2023/04/27 03:29:05;;;;;;;9.83;2.50;;;7.50;99.90;;;;;;5018551;28;20251;-76
2023/04/27 03:31:31;;;;;;;7.50;2.77;;;7.40;99.90;;;;;;5012894;28;20205;-77
2023/04/27 03:33:56;;;;;;;3.53;2.00;;;7.40;99.90;;;;;;5020440;28;20184;-75
2023/04/27 03:36:22;;;;;;;6.20;2.10;;;7.40;99.90;;;;;;5015555;28;20238;-75
2023/04/27 03:38:47;;;;;;;6.40;2.37;;;7.20;99.90;;;;;;5012486;28;20720;-77
2023/04/27 03:41:13;;;;;;;8.80;2.90;;;7.30;99.90;;;;;;5021928;28;20248;-77
2023/04/27 03:43:39;;;;;;;5.40;2.40;;;7.30;99.90;;;;;;5015037;28;20213;-77
2023/04/27 03:46:04;;;;;;;7.23;2.30;;;7.30;99.90;;;;;;5013036;28;20226;-74
2023/04/27 03:48:30;;;;;;;10.80;2.50;;;7.30;99.90;;;;;;5021425;28;20647;-76
2023/04/27 03:50:55;;;;;;;8.37;2.93;;;7.30;99.90;;;;;;5014999;28;20295;-76
2023/04/27 03:53:21;;;;;;;9.07;2.57;;;7.30;99.90;;;;;;5011603;28;20696;-76
2023/04/27 03:55:47;;;;;;;6.47;3.07;;;7.40;99.90;;;;;;5010339;28;20209;-77
2023/04/27 03:58:12;;;;;;;8.53;3.20;;;7.40;99.90;;;;;;5020347;28;20863;-77
2023/04/27 04:00:39;;;;;;;10.63;3.03;;;7.30;99.90;;;;;;5010842;28;20199;-77
2023/04/27 04:03:05;;;;;;;8.17;2.37;;;7.40;99.90;;;;;;5010230;28;20274;-77
2023/04/27 04:05:31;;;;;;;5.30;2.47;;;7.30;99.90;;;;;;5014185;28;20209;-76
2023/04/27 04:07:57;;;;;;;5.93;2.10;;;7.30;99.90;;;;;;5010402;28;20586;-75
2023/04/27 04:10:23;;;;;;;5.50;2.27;;;7.30;99.90;;;;;;5007965;28;20228;-76
2023/04/27 04:12:49;;;;;;;4.23;2.17;;;7.30;99.90;;;;;;5016089;28;20181;-76
2023/04/27 04:15:15;;;;;;;4.80;1.97;;;7.30;99.90;;;;;;5017614;28;20208;-76
2023/04/27 04:17:40;;;;;;;22.77;3.27;;;7.40;99.90;;;;;;5016116;28;20267;-76
2023/04/27 04:20:09;;;;;;;6.27;2.50;;;7.40;99.90;;;;;;5012207;28;20615;-76
2023/04/27 04:22:38;;;;;;;6.93;2.33;;;7.40;99.90;;;;;;5025381;28;20324;-74
2023/04/27 04:25:04;;;;;;;9.53;2.77;;;7.40;99.90;;;;;;5016506;28;20200;-74
2023/04/27 04:27:31;;;;;;;8.93;2.60;;;7.30;99.90;;;;;;5015109;28;20196;-74
2023/04/27 04:29:59;;;;;;;6.90;2.00;;;7.40;99.90;;;;;;5014337;28;20274;-75
2023/04/27 04:32:30;;;;;;;9.13;2.90;;;7.30;99.90;;;;;;5013487;28;20323;-75
2023/04/27 04:34:56;;;;;;;6.40;2.40;;;7.20;99.90;;;;;;5024419;28;20293;-76
2023/04/27 04:37:22;;;;;;;5.33;2.50;;;7.30;99.90;;;;;;5017536;28;20271;-76
2023/04/27 04:39:47;;;;;;;6.37;3.13;;;7.30;99.90;;;;;;5015579;28;20221;-77
2023/04/27 04:42:13;;;;;;;10.03;2.43;;;7.40;99.90;;;;;;5013845;28;20181;-77
2023/04/27 04:44:39;;;;;;;8.40;4.27;;;7.40;99.90;;;;;;5014736;28;20286;-77
2023/04/27 04:47:05;;;;;;;9.10;2.80;;;7.50;99.90;;;;;;5021017;28;20267;-75
2023/04/27 04:49:31;;;;;;;5.57;2.13;;;7.40;99.90;;;;;;5016926;28;20212;-75
2023/04/27 04:51:56;;;;;;;7.10;3.23;;;7.50;99.90;;;;;;5021812;28;20272;-76
2023/04/27 04:54:22;;;;;;;9.17;2.70;;;7.40;99.90;;;;;;5016288;28;20181;-76
2023/04/27 04:56:47;;;;;;;7.07;2.67;;;7.50;99.90;;;;;;5019900;28;20216;-75
2023/04/27 04:59:13;;;;;;;6.80;3.43;;;7.60;99.90;;;;;;5012915;28;20275;-74
2023/04/27 05:01:39;;;;;;;9.67;3.07;;;7.60;99.90;;;;;;5014637;28;20215;-75
2023/04/27 05:04:04;;;;;;;9.50;2.93;;;7.60;99.90;;;;;;5015948;28;20225;-75
2023/04/27 05:06:31;;;;;;;8.17;3.13;;;7.60;99.90;;;;;;5020025;28;20180;-75
2023/04/27 05:08:56;;;;;;;11.17;3.90;;;7.80;99.90;;;;;;5013662;28;20226;-76
2023/04/27 05:11:22;;;;;;;10.97;3.23;;;7.80;99.90;;;;;;5021776;28;20212;-76
2023/04/27 05:13:48;;;;;;;7.07;4.20;;;7.70;99.90;;;;;;5016776;28;20212;-76
2023/04/27 05:16:13;;;;;;;6.43;2.87;;;7.90;99.90;;;;;;5019018;28;20590;-74
2023/04/27 05:18:39;;;;;;;6.73;3.00;;;8.00;99.90;;;;;;5016591;28;20197;-78
2023/04/27 05:21:12;;;;;;;9.63;3.80;;;8.00;99.90;;;;;;5024181;28;20218;-75
2023/04/27 05:23:37;;;;;;;9.50;3.43;;;7.70;99.90;;;;;;5020902;28;20259;-76
2023/04/27 05:26:14;;;;;;;10.30;3.30;;;7.80;99.90;;;;;;5015402;28;20224;-75
2023/04/27 05:28:40;;;;;;;6.27;2.80;;;7.90;99.90;;;;;;5018791;28;20227;-75
2023/04/27 05:31:06;;;;;;;9.80;3.90;;;7.70;99.90;;;;;;5014706;28;20212;-75
2023/04/27 05:33:31;;;;;;;9.17;3.13;;;7.90;99.90;;;;;;5014810;28;20181;-76
2023/04/27 05:35:57;;;;;;;7.43;3.43;;;8.00;99.90;;;;;;5022325;28;20213;-81
2023/04/27 05:38:22;;;;;;;7.63;2.83;;;8.20;99.90;;;;;;5016972;28;20224;-77
2023/04/27 05:40:54;;;;;;;6.50;2.67;;;8.50;99.90;;;;;;5017398;28;20228;-75
2023/04/27 05:43:20;;;;;;;9.97;2.97;;;8.70;99.90;;;;;;5014662;28;20324;-78
2023/04/27 05:45:45;;;;;;;10.57;3.53;;;9.00;99.90;;;;;;5022736;28;20267;-78
2023/04/27 05:48:12;;;;;;;10.87;3.33;;;9.00;99.90;;;;;;5016807;28;20192;-78
2023/04/27 05:50:38;;;;;;;5.70;2.90;;;8.90;99.90;;;;;;5012682;28;20208;-77
2023/04/27 05:53:04;;;;;;;10.48;3.83;;;9.10;99.90;;;;;;5012897;28;20430;-78
2023/04/27 05:55:30;;;;;;;6.23;2.87;;;9.20;99.90;;;;;;5014940;28;20216;-78
2023/04/27 05:57:56;;;;;;;7.50;3.10;;;9.60;99.90;;;;;;5015601;28;20201;-79
2023/04/27 06:00:21;;;;;;;7.03;3.30;;;10.10;99.90;;;;;;5011958;28;20262;-78
2023/04/27 06:02:47;;;;;;;7.97;2.27;;;10.30;99.90;;;;;;5011820;28;20587;-76
2023/04/27 06:05:14;;;;;;;5.27;2.57;;;10.30;99.90;;;;;;5016785;28;20298;-77
2023/04/27 06:07:42;;;;;;;9.07;2.80;;;10.40;99.90;;;;;;5018522;28;20196;-77
2023/04/27 06:10:11;;;;;;;6.53;2.30;;;11.10;99.90;;;;;;5017064;28;20223;-77
2023/04/27 06:12:37;;;;;;;4.47;2.47;;;12.20;99.90;;;;;;5014514;28;20180;-77
2023/04/27 06:15:07;;;;;;;3.33;2.20;;;12.70;99.90;;;;;;5020965;28;20208;-77
2023/04/27 06:17:37;;;;;;;8.27;2.30;;;13.90;99.90;;;;;;5016410;28;20230;-77
2023/04/27 06:20:07;;;;;;;6.97;2.33;;;14.20;99.90;;;;;;5012291;28;20252;-76
2023/04/27 06:22:33;;;;;;;7.38;2.65;;;14.30;99.90;;;;;;5013119;28;20208;-80
2023/04/27 06:24:58;;;;;;;5.65;2.03;;;14.50;99.90;;;;;;5012333;28;20187;-78
2023/04/27 06:27:24;;;;;;;6.15;2.25;;;15.00;99.90;;;;;;5019206;28;20203;-78
2023/04/27 06:29:50;;;;;;;4.90;2.03;;;14.70;99.90;;;;;;5017669;28;20208;-74
2023/04/27 06:32:16;;;;;;;5.28;2.30;;;14.80;99.90;;;;;;5011157;28;20205;-76
2023/04/27 06:34:42;;;;;;;6.03;2.00;;;15.10;99.90;;;;;;5017743;28;20270;-76
2023/04/27 06:37:07;;;;;;;7.32;2.03;;;15.10;99.90;;;;;;5018644;28;20668;-76
2023/04/27 06:39:34;;;;;;;6.28;2.20;;;16.00;99.90;;;;;;5019045;28;20702;-78
2023/04/27 06:41:59;;;;;;;4.93;2.08;;;17.50;99.90;;;;;;5013798;28;20216;-76
2023/04/27 06:44:25;;;;;;;5.32;2.20;;;16.90;99.90;;;;;;5013047;28;20201;-77
2023/04/27 06:46:51;;;;;;;5.05;2.30;;;17.20;99.90;;;;;;5015025;28;20326;-78
2023/04/27 06:49:16;;;;;;;4.80;1.80;;;17.80;99.90;;;;;;5017167;28;20305;-76
2023/04/27 06:51:42;;;;;;;4.68;2.33;;;16.80;99.90;;;;;;5015622;28;20721;-77
2023/04/27 06:54:08;;;;;;;4.93;1.85;;;16.70;99.90;;;;;;5017011;28;20261;-77
2023/04/27 06:56:33;;;;;;;4.22;2.20;;;16.40;99.90;;;;;;5013542;28;20725;-77
2023/04/27 06:58:59;;;;;;;4.70;2.20;;;17.50;99.90;;;;;;5011605;28;20602;-75
2023/04/27 07:01:25;;;;;;;4.50;2.13;;;16.90;99.90;;;;;;5012080;28;20290;-76
2023/04/27 07:03:50;;;;;;;6.28;2.50;;;15.80;99.90;;;;;;5015032;28;20250;-76
2023/04/27 07:06:16;;;;;;;7.28;2.33;;;15.20;99.90;;;;;;5012128;28;20192;-76
2023/04/27 07:08:42;;;;;;;4.30;2.10;;;15.20;99.90;;;;;;5011252;28;20240;-76
2023/04/27 07:11:08;;;;;;;8.25;2.15;;;16.00;99.90;;;;;;5023334;28;20212;-76
2023/04/27 07:13:33;;;;;;;6.13;2.42;;;15.90;99.90;;;;;;5015269;28;20201;-76
2023/04/27 07:16:00;;;;;;;4.93;2.17;;;16.00;99.90;;;;;;5017260;28;20180;-76
2023/04/27 07:18:29;;;;;;;7.05;2.95;;;16.30;99.90;;;;;;5018376;28;20212;-74
2023/04/27 07:20:56;;;;;;;7.97;2.65;;;16.00;99.90;;;;;;5012963;28;20716;-76
2023/04/27 07:23:22;;;;;;;7.43;2.40;;;14.90;99.90;;;;;;5010508;28;20217;-75
2023/04/27 07:25:48;;;;;;;6.70;2.40;;;15.30;99.90;;;;;;5017195;28;20250;-76
2023/04/27 07:28:14;;;;;;;6.03;2.10;;;15.90;99.90;;;;;;5019383;28;20225;-76
2023/04/27 07:30:41;;;;;;;3.95;1.75;;;17.70;99.90;;;;;;5017167;28;20239;-75
2023/04/27 07:33:08;;;;;;;6.07;2.38;;;18.80;99.90;;;;;;5013511;28;20216;-76
2023/04/27 07:35:35;;;;;;;4.28;2.42;;;17.20;99.90;;;;;;5014146;28;20224;-75
2023/04/27 07:38:01;;;;;;;4.25;2.47;;;16.10;99.90;;;;;;5017085;28;20212;-75
2023/04/27 07:40:28;;;;;;;6.50;1.98;;;15.30;99.90;;;;;;5014339;28;20707;-75
2023/04/27 07:42:54;;;;;;;4.95;1.90;;;14.60;99.90;;;;;;5019587;28;20958;-76
2023/04/27 07:45:20;;;;;;;5.45;2.88;;;14.60;99.90;;;;;;5013907;28;20169;-76
2023/04/27 07:47:46;;;;;;;8.73;2.80;;;14.20;99.90;;;;;;5010264;28;20223;-76
2023/04/27 07:50:13;;;;;;;4.00;2.00;;;14.30;99.90;;;;;;5008682;28;20216;-76
2023/04/27 07:52:39;;;;;;;7.28;2.63;;;13.80;99.90;;;;;;5017874;28;20207;-76
2023/04/27 07:55:05;;;;;;;4.97;2.40;;;13.50;99.90;;;;;;5017017;28;20585;-77
2023/04/27 07:57:31;;;;;;;4.22;2.45;;;14.60;99.90;;;;;;5017786;28;20173;-77
2023/04/27 07:59:56;;;;;;;5.75;3.20;;;16.40;99.90;;;;;;5017161;28;20230;-77
2023/04/27 08:02:22;;;;;;;6.40;2.38;;;18.20;99.90;;;;;;5018126;28;20215;-75
2023/04/27 08:04:49;;;;;;;6.20;2.35;;;15.80;99.90;;;;;;5015075;28;20205;-74
2023/04/27 08:07:15;;;;;;;4.75;2.00;;;15.50;99.90;;;;;;5012146;28;20200;-76
2023/04/27 08:09:41;;;;;;;4.45;2.25;;;14.70;99.90;;;;;;5013279;28;20573;-77
2023/04/27 08:12:06;;;;;;;5.78;2.30;;;14.50;99.90;;;;;;5009691;28;20320;-77
2023/04/27 08:14:35;;;;;;;3.88;2.47;;;15.00;99.90;;;;;;5012238;28;20204;-76
2023/04/27 08:17:01;;;;;;;4.63;2.60;;;13.80;99.90;;;;;;5016377;28;20287;-75
2023/04/27 08:19:26;;;;;;;3.15;2.63;;;12.90;99.90;;;;;;5012100;28;20303;-75
2023/04/27 08:21:52;;;;;;;10.93;2.90;;;12.70;99.90;;;;;;5010841;28;20170;-76
2023/04/27 08:24:19;;;;;;;5.18;2.50;;;11.90;99.90;;;;;;5010822;28;20257;-77
2023/04/27 08:26:45;;;;;;;7.28;2.92;;;12.20;99.90;;;;;;5023893;28;20307;-76
2023/04/27 08:29:11;;;;;;;4.03;1.73;;;11.70;99.90;;;;;;5011160;28;20287;-76
2023/04/27 08:31:36;;;;;;;5.67;2.83;;;11.30;99.90;;;;;;5009899;28;20239;-76
2023/04/27 08:34:02;;;;;;;4.27;2.40;;;11.00;99.90;;;;;;5013264;28;20271;-76
2023/04/27 08:36:28;;;;;;;8.60;3.73;;;10.70;99.90;;;;;;5018983;28;20178;-75
2023/04/27 08:38:54;;;;;;;7.23;2.73;;;10.60;99.90;;;;;;5015019;28;20221;-76
2023/04/27 08:41:23;;;;;;;4.47;2.50;;;10.90;99.90;;;;;;5009573;28;20256;-77
2023/04/27 08:43:50;;;;;;;3.17;1.90;;;11.50;99.90;;;;;;5011652;28;20254;-75
2023/04/27 08:46:25;;;;;;;6.13;2.33;;;11.50;99.90;;;;;;5011933;28;20644;-76
2023/04/27 08:48:52;;;;;;;5.97;2.20;;;11.50;99.90;;;;;;5014785;28;20180;-76
2023/04/27 08:51:18;;;;;;;6.07;2.13;;;11.60;99.90;;;;;;5010254;28;20551;-76
2023/04/27 08:53:53;;;;;;;3.57;2.20;;;11.30;99.90;;;;;;5011696;28;20258;-75
2023/04/27 08:56:22;;;;;;;6.67;2.50;;;11.10;99.90;;;;;;5010729;28;20204;-75
2023/04/27 08:58:48;;;;;;;4.77;2.30;;;11.20;99.90;;;;;;5012955;28;20213;-75
2023/04/27 09:01:13;;;;;;;11.33;3.03;;;11.70;99.90;;;;;;5021310;28;20213;-76
2023/04/27 09:03:39;;;;;;;8.48;2.60;;;12.50;99.90;;;;;;5015562;28;20649;-77
2023/04/27 09:06:06;;;;;;;3.05;1.90;;;13.20;99.90;;;;;;5019577;28;20204;-76
2023/04/27 09:08:50;;;;;;;9.68;3.75;;;13.70;99.90;;;;;;5018142;28;20197;-75
2023/04/27 09:11:36;;;;;;;4.68;2.58;;;14.70;99.90;;;;;;5013048;28;20204;-76
2023/04/27 09:14:15;;;;;;;3.70;2.05;;;14.80;99.90;;;;;;5017469;28;20224;-76
2023/04/27 09:16:42;;;;;;;3.58;1.90;;;14.40;99.90;;;;;;5013157;28;20308;-76
2023/04/27 09:19:07;;;;;;;7.10;1.85;;;13.90;99.90;;;;;;5012523;28;20221;-75
2023/04/27 09:21:33;;;;;;;7.63;2.72;;;12.40;99.90;;;;;;5015258;28;20185;-76
2023/04/27 09:24:11;;;;;;;6.40;2.47;;;12.00;99.90;;;;;;5021508;28;20220;-74
2023/04/27 09:26:38;;;;;;;6.32;2.70;;;11.90;99.90;;;;;;5012514;28;20577;-75
2023/04/27 09:29:03;;;;;;;4.93;1.77;;;11.70;99.90;;;;;;5011981;28;20862;-75
2023/04/27 09:31:35;;;;;;;5.00;2.03;;;11.20;99.90;;;;;;5014004;28;20311;-74
2023/04/27 09:34:01;;;;;;;3.43;1.73;;;11.20;99.90;;;;;;5019979;28;20264;-76
2023/04/27 09:36:29;;;;;;;5.87;1.93;;;11.80;99.90;;;;;;5020022;28;20250;-74
2023/04/27 09:38:55;;;;;;;5.53;1.80;;;12.00;99.90;;;;;;5023185;28;20221;-76
2023/04/27 09:41:21;;;;;;;2.63;1.60;;;12.30;99.90;;;;;;5027538;28;20205;-75
2023/04/27 09:43:49;;;;;;;5.38;1.70;;;12.40;99.90;;;;;;5023067;28;20235;-75
2023/04/27 09:46:15;;;;;;;6.78;2.15;;;12.70;99.90;;;;;;5011728;28;20593;-75
2023/04/27 09:48:41;;;;;;;3.95;1.52;;;12.40;99.90;;;;;;5015230;28;20185;-74
2023/04/27 09:51:07;;;;;;;5.63;1.98;;;12.90;99.90;;;;;;5013676;28;20209;-77
2023/04/27 09:53:48;;;;;;;5.22;2.10;;;13.10;99.90;;;;;;5015313;28;20212;-77
2023/04/27 09:56:41;;;;;;;5.00;1.80;;;13.20;99.90;;;;;;5012354;28;20216;-76
2023/04/27 09:59:25;;;;;;;4.18;1.70;;;13.20;99.90;;;;;;5015655;28;20223;-77
2023/04/27 10:01:55;;;;;;;4.78;1.70;;;13.00;99.90;;;;;;5012357;28;20727;-77
2023/04/27 10:04:58;;;;;;;3.00;1.30;;;13.00;99.90;;;;;;5020751;28;20266;-77
2023/04/27 10:07:26;;;;;;;5.57;1.60;;;13.20;99.90;;;;;;5017712;28;20220;-77
2023/04/27 10:09:52;;;;;;;3.97;1.33;;;13.70;99.90;;;;;;5010624;28;20189;-77
2023/04/27 10:12:31;;;;;;;3.03;1.65;;;13.80;99.90;;;;;;5012278;28;20204;-74
2023/04/27 10:14:58;;;;;;;4.97;1.27;;;13.40;99.90;;;;;;5015639;28;20288;-75
2023/04/27 10:17:32;;;;;;;3.67;1.95;;;12.80;99.90;;;;;;5011975;28;20224;-76
2023/04/27 10:20:09;;;;;;;3.60;1.75;;;12.50;99.90;;;;;;5021377;28;20326;-75
2023/04/27 10:22:46;;;;;;;6.78;1.77;;;12.60;99.90;;;;;;5012658;28;20240;-75
2023/04/27 10:25:23;;;;;;;4.65;1.95;;;12.60;99.90;;;;;;5013288;28;20212;-75
2023/04/27 10:27:54;;;;;;;3.25;1.48;;;12.70;99.90;;;;;;5015234;28;20181;-75
2023/04/27 10:30:22;;;;;;;3.42;1.60;;;12.90;99.90;;;;;;5011588;28;20193;-75
2023/04/27 10:32:50;;;;;;;5.38;1.85;;;13.00;99.90;;;;;;5020908;28;20209;-76
2023/04/27 10:35:16;;;;;;;2.35;1.77;;;12.80;99.90;;;;;;5015682;28;20227;-75
2023/04/27 10:37:42;;;;;;;4.10;1.60;;;12.90;99.90;;;;;;5019558;28;20720;-73
2023/04/27 10:40:13;;;;;;;3.47;1.13;;;12.60;99.90;;;;;;5011729;28;20228;-75
2023/04/27 10:42:40;;;;;;;2.78;1.33;;;12.80;99.90;;;;;;5022320;28;20680;-76
2023/04/27 10:45:07;;;;;;;2.95;1.23;;;12.50;99.90;;;;;;5010788;28;20212;-75
2023/04/27 10:47:41;;;;;;;3.03;1.50;;;12.60;99.90;;;;;;5019765;28;20205;-74
2023/04/27 10:50:12;;;;;;;2.97;1.73;;;13.10;99.90;;;;;;5010595;28;20219;-77
2023/04/27 10:52:47;;;;;;;2.97;1.25;;;13.20;99.90;;;;;;5021469;28;20220;-76
2023/04/27 10:55:21;;;;;;;4.93;1.92;;;13.20;99.90;;;;;;5020603;28;20212;-76
2023/04/27 10:57:52;;;;;;;4.00;1.52;;;13.60;99.90;;;;;;5014660;28;20181;-75
2023/04/27 11:00:26;;;;;;;10.10;4.40;;;13.70;99.90;;;;;;5021494;28;20266;-75
2023/04/27 11:02:57;;;;;;;5.80;1.58;;;13.30;99.90;;;;;;5017771;28;20258;-76
2023/04/27 11:05:26;;;;;;;5.05;1.90;;;13.00;99.90;;;;;;5015783;28;20258;-76
2023/04/27 11:07:51;;;;;;;4.28;1.20;;;13.20;99.90;;;;;;5010881;28;20205;-77
2023/04/27 11:10:18;;;;;;;3.60;1.70;;;12.90;99.90;;;;;;5010420;28;20288;-75
2023/04/27 11:12:44;;;;;;;3.92;1.25;;;12.70;99.90;;;;;;5009663;28;20185;-75
2023/04/27 11:15:11;;;;;;;4.85;1.70;;;12.60;99.90;;;;;;5011131;28;20205;-77
2023/04/27 11:17:37;;;;;;;1.65;1.27;;;12.60;99.90;;;;;;5018734;28;20293;-76
2023/04/27 11:20:07;;;;;;;2.70;1.80;;;12.70;99.90;;;;;;5012173;28;20236;-77
2023/04/27 11:22:34;;;;;;;4.53;1.77;;;12.70;99.90;;;;;;5013957;28;20427;-76
2023/04/27 11:25:00;;;;;;;5.47;1.47;;;12.60;99.90;;;;;;5012764;28;20181;-76
2023/04/27 11:27:39;;;;;;;3.10;1.30;;;12.60;99.90;;;;;;5015345;28;20231;-76
2023/04/27 11:30:06;;;;;;;3.42;1.65;;;12.80;99.90;;;;;;5020037;28;20208;-77
2023/04/27 11:32:32;;;;;;;4.97;1.30;;;13.20;99.90;;;;;;5010542;28;20205;-76
2023/04/27 11:34:58;;;;;;;2.90;1.52;;;13.30;99.90;;;;;;5010323;28;20251;-76
2023/04/27 11:37:25;;;;;;;3.55;1.60;;;13.60;99.90;;;;;;5010600;28;20220;-76
2023/04/27 11:39:53;;;;;;;2.63;1.75;;;13.20;99.90;;;;;;5010708;28;20223;-76
2023/04/27 11:42:24;;;;;;;3.33;1.30;;;12.80;99.90;;;;;;5041565;23;20308;-76
2023/04/27 11:44:53;;;;;;;4.28;1.35;;;12.60;99.90;;;;;;5049029;28;20199;-75
2023/04/27 11:47:21;;;;;;;6.25;2.50;;;12.70;99.90;;;;;;5051603;28;20684;-76
2023/04/27 11:49:51;;;;;;;6.60;2.03;;;12.80;99.90;;;;;;5054342;28;20215;-75
2023/04/27 11:52:17;;;;;;;1.70;1.27;;;13.10;99.90;;;;;;5051268;28;20287;-75
2023/04/27 11:54:52;;;;;;;5.70;1.77;;;13.40;99.90;;;;;;5038129;28;20177;-74
2023/04/27 11:57:27;;;;;;;4.43;1.30;;;13.10;99.90;;;;;;5048044;28;20199;-75
2023/04/27 11:59:54;;;;;;;2.50;1.40;;;13.30;99.90;;;;;;5038281;28;20227;-74
2023/04/27 12:02:22;;;;;;;6.45;1.48;;;13.50;99.90;;;;;;5037272;28;20206;-76
2023/04/27 12:04:48;;;;;;;6.78;1.63;;;13.20;99.90;;;;;;5036171;28;20270;-76
2023/04/27 12:07:14;;;;;;;3.88;1.98;;;13.40;99.90;;;;;;5031465;28;20207;-75
2023/04/27 12:09:40;;;;;;;3.72;1.73;;;13.10;99.90;;;;;;5045308;28;20541;-76
2023/04/27 12:12:07;;;;;;;3.47;1.63;;;13.00;99.90;;;;;;5029536;28;20228;-75
2023/04/27 12:14:32;;;;;;;5.70;1.95;;;13.00;99.90;;;;;;5035349;28;20584;-76
2023/04/27 12:16:58;;;;;;;5.63;1.58;;;12.90;99.90;;;;;;5032746;28;20219;-76
2023/04/27 12:19:24;;;;;;;4.35;1.48;;;13.00;99.90;;;;;;5045989;28;20280;-75
2023/04/27 12:21:51;;;;;;;5.43;1.90;;;13.10;99.90;;;;;;5039499;28;20261;-76
2023/04/27 12:24:16;;;;;;;2.27;1.53;;;12.70;99.90;;;;;;5035699;28;20177;-76
2023/04/27 12:26:42;;;;;;;3.90;1.43;;;12.80;99.90;;;;;;5046345;28;20304;-74
2023/04/27 12:29:08;;;;;;;2.00;1.40;;;12.90;99.90;;;;;;5037881;28;20276;-75
2023/04/27 12:31:34;;;;;;;2.25;1.38;;;12.70;99.90;;;;;;5036490;28;20207;-76
2023/04/27 12:34:00;;;;;;;4.75;1.40;;;12.90;99.90;;;;;;5049070;28;20736;-75
2023/04/27 12:36:26;;;;;;;6.13;1.63;;;12.90;99.90;;;;;;5051471;28;20541;-76
2023/04/27 12:38:56;;;;;;;2.65;1.48;;;13.00;99.90;;;;;;5036898;28;20230;-76
2023/04/27 12:41:22;;;;;;;5.70;1.83;;;13.30;99.90;;;;;;5049837;28;20203;-74
2023/04/27 12:43:47;;;;;;;4.30;1.45;;;13.20;99.90;;;;;;5052602;28;20223;-76
2023/04/27 12:46:13;;;;;;;6.28;1.63;;;13.20;99.90;;;;;;5034815;28;20204;-74
2023/04/27 12:48:39;;;;;;;3.25;1.50;;;13.20;99.90;;;;;;5040758;28;20551;-74
2023/04/27 12:51:05;;;;;;;2.92;1.25;;;13.00;99.90;;;;;;5051782;28;20287;-75